sensor_id;sensor_type;location;lat;lon;timestamp;temperature;humidity
3492;DHT22;1760;52.480;13.422;2022-07-30T00:01:32;21.50;68.70
3492;DHT22;1760;52.480;13.422;2022-07-30T00:03:59;21.50;68.70
3492;DHT22;1760;52.480;13.422;2022-07-30T00:06:26;21.60;69.10
3492;DHT22;1760;52.480;13.422;2022-07-30T00:08:53;21.50;68.60
3492;DHT22;1760;52.480;13.422;2022-07-30T00:11:20;21.50;68.90
3492;DHT22;1760;52.480;13.422;2022-07-30T00:13:48;21.50;69.20
3492;DHT22;1760;52.480;13.422;2022-07-30T00:16:15;21.50;69.50
3492;DHT22;1760;52.480;13.422;2022-07-30T00:18:42;21.40;69.70
3492;DHT22;1760;52.480;13.422;2022-07-30T00:21:08;21.40;70.00
3492;DHT22;1760;52.480;13.422;2022-07-30T00:23:35;21.30;69.90
3492;DHT22;1760;52.480;13.422;2022-07-30T00:26:02;21.40;70.20
3492;DHT22;1760;52.480;13.422;2022-07-30T00:28:29;21.40;70.50
3492;DHT22;1760;52.480;13.422;2022-07-30T00:30:57;21.40;70.40
3492;DHT22;1760;52.480;13.422;2022-07-30T00:33:24;21.40;71.40
3492;DHT22;1760;52.480;13.422;2022-07-30T00:35:51;21.30;70.80
3492;DHT22;1760;52.480;13.422;2022-07-30T00:38:18;21.40;71.40
3492;DHT22;1760;52.480;13.422;2022-07-30T00:40:45;21.30;71.30
3492;DHT22;1760;52.480;13.422;2022-07-30T00:43:14;21.30;71.60
3492;DHT22;1760;52.480;13.422;2022-07-30T00:45:42;21.30;71.80
3492;DHT22;1760;52.480;13.422;2022-07-30T00:48:10;21.30;72.30
3492;DHT22;1760;52.480;13.422;2022-07-30T00:50:38;21.20;72.30
3492;DHT22;1760;52.480;13.422;2022-07-30T00:53:08;21.20;72.80
3492;DHT22;1760;52.480;13.422;2022-07-30T00:55:35;21.20;72.90
3492;DHT22;1760;52.480;13.422;2022-07-30T00:58:02;21.20;72.90
3492;DHT22;1760;52.480;13.422;2022-07-30T01:00:31;21.20;73.10
3492;DHT22;1760;52.480;13.422;2022-07-30T01:02:58;21.20;73.30
3492;DHT22;1760;52.480;13.422;2022-07-30T01:05:26;21.10;73.60
3492;DHT22;1760;52.480;13.422;2022-07-30T01:07:53;21.10;73.90
3492;DHT22;1760;52.480;13.422;2022-07-30T01:10:19;21.10;74.00
3492;DHT22;1760;52.480;13.422;2022-07-30T01:12:46;21.10;74.40
3492;DHT22;1760;52.480;13.422;2022-07-30T01:15:17;21.10;75.00
3492;DHT22;1760;52.480;13.422;2022-07-30T01:17:45;21.00;75.10
3492;DHT22;1760;52.480;13.422;2022-07-30T01:20:16;21.10;75.40
3492;DHT22;1760;52.480;13.422;2022-07-30T01:22:51;21.00;75.50
3492;DHT22;1760;52.480;13.422;2022-07-30T01:28:02;20.90;76.20
3492;DHT22;1760;52.480;13.422;2022-07-30T01:30:33;21.00;76.70
3492;DHT22;1760;52.480;13.422;2022-07-30T01:33:02;20.90;77.00
3492;DHT22;1760;52.480;13.422;2022-07-30T01:35:31;20.90;77.10
3492;DHT22;1760;52.480;13.422;2022-07-30T01:37:59;20.90;77.70
3492;DHT22;1760;52.480;13.422;2022-07-30T01:40:28;20.90;78.10
3492;DHT22;1760;52.480;13.422;2022-07-30T01:42:56;20.80;78.40
3492;DHT22;1760;52.480;13.422;2022-07-30T01:45:30;20.90;78.80
3492;DHT22;1760;52.480;13.422;2022-07-30T01:47:59;20.90;79.20
3492;DHT22;1760;52.480;13.422;2022-07-30T01:50:27;20.80;79.70
3492;DHT22;1760;52.480;13.422;2022-07-30T01:52:56;20.80;80.30
3492;DHT22;1760;52.480;13.422;2022-07-30T01:55:33;20.70;80.90
3492;DHT22;1760;52.480;13.422;2022-07-30T01:58:05;20.70;81.10
3492;DHT22;1760;52.480;13.422;2022-07-30T02:00:37;20.70;81.60
3492;DHT22;1760;52.480;13.422;2022-07-30T02:03:05;20.70;81.80
3492;DHT22;1760;52.480;13.422;2022-07-30T02:05:34;20.70;82.40
3492;DHT22;1760;52.480;13.422;2022-07-30T02:08:06;20.70;82.70
3492;DHT22;1760;52.480;13.422;2022-07-30T02:10:39;20.70;82.90
3492;DHT22;1760;52.480;13.422;2022-07-30T02:13:07;20.70;83.10
3492;DHT22;1760;52.480;13.422;2022-07-30T02:15:40;20.60;83.60
3492;DHT22;1760;52.480;13.422;2022-07-30T02:18:12;20.60;84.40
3492;DHT22;1760;52.480;13.422;2022-07-30T02:20:44;20.70;84.60
3492;DHT22;1760;52.480;13.422;2022-07-30T02:23:14;20.60;85.10
3492;DHT22;1760;52.480;13.422;2022-07-30T02:25:45;20.60;85.50
3492;DHT22;1760;52.480;13.422;2022-07-30T02:28:14;20.60;86.10
3492;DHT22;1760;52.480;13.422;2022-07-30T02:30:47;20.60;86.60
3492;DHT22;1760;52.480;13.422;2022-07-30T02:33:16;20.50;87.00
3492;DHT22;1760;52.480;13.422;2022-07-30T02:35:44;20.50;87.60
3492;DHT22;1760;52.480;13.422;2022-07-30T02:38:12;20.50;88.40
3492;DHT22;1760;52.480;13.422;2022-07-30T02:40:42;20.50;88.40
3492;DHT22;1760;52.480;13.422;2022-07-30T02:43:10;20.50;89.40
3492;DHT22;1760;52.480;13.422;2022-07-30T02:45:40;20.50;89.70
3492;DHT22;1760;52.480;13.422;2022-07-30T02:48:10;20.40;90.00
3492;DHT22;1760;52.480;13.422;2022-07-30T02:50:38;20.50;90.30
3492;DHT22;1760;52.480;13.422;2022-07-30T02:53:08;20.50;90.60
3492;DHT22;1760;52.480;13.422;2022-07-30T02:55:37;20.50;91.00
3492;DHT22;1760;52.480;13.422;2022-07-30T02:58:06;20.40;91.10
3492;DHT22;1760;52.480;13.422;2022-07-30T03:00:33;20.40;91.40
3492;DHT22;1760;52.480;13.422;2022-07-30T03:03:01;20.30;91.60
3492;DHT22;1760;52.480;13.422;2022-07-30T03:05:32;20.30;91.90
3492;DHT22;1760;52.480;13.422;2022-07-30T03:08:00;20.30;92.10
3492;DHT22;1760;52.480;13.422;2022-07-30T03:10:29;20.30;92.60
3492;DHT22;1760;52.480;13.422;2022-07-30T03:12:57;20.30;92.80
3492;DHT22;1760;52.480;13.422;2022-07-30T03:15:26;20.30;93.00
3492;DHT22;1760;52.480;13.422;2022-07-30T03:17:53;20.30;93.30
3492;DHT22;1760;52.480;13.422;2022-07-30T03:20:26;20.30;93.70
3492;DHT22;1760;52.480;13.422;2022-07-30T03:22:57;20.20;93.90
3492;DHT22;1760;52.480;13.422;2022-07-30T03:25:26;20.20;94.20
3492;DHT22;1760;52.480;13.422;2022-07-30T03:27:54;20.20;94.60
3492;DHT22;1760;52.480;13.422;2022-07-30T03:30:23;20.10;95.20
3492;DHT22;1760;52.480;13.422;2022-07-30T03:32:51;20.10;95.30
3492;DHT22;1760;52.480;13.422;2022-07-30T03:35:19;20.10;95.60
3492;DHT22;1760;52.480;13.422;2022-07-30T03:37:47;20.10;96.00
3492;DHT22;1760;52.480;13.422;2022-07-30T03:40:16;20.10;96.40
3492;DHT22;1760;52.480;13.422;2022-07-30T03:42:44;20.10;96.70
3492;DHT22;1760;52.480;13.422;2022-07-30T03:45:12;20.10;96.70
3492;DHT22;1760;52.480;13.422;2022-07-30T03:47:40;20.10;96.90
3492;DHT22;1760;52.480;13.422;2022-07-30T03:50:09;20.10;97.10
3492;DHT22;1760;52.480;13.422;2022-07-30T03:52:38;20.10;97.20
3492;DHT22;1760;52.480;13.422;2022-07-30T03:55:07;20.10;97.40
3492;DHT22;1760;52.480;13.422;2022-07-30T03:57:42;20.20;97.60
3492;DHT22;1760;52.480;13.422;2022-07-30T04:00:12;20.20;97.60
3492;DHT22;1760;52.480;13.422;2022-07-30T04:02:40;20.20;97.70
3492;DHT22;1760;52.480;13.422;2022-07-30T04:05:08;20.20;97.90
3492;DHT22;1760;52.480;13.422;2022-07-30T04:07:37;20.20;98.00
3492;DHT22;1760;52.480;13.422;2022-07-30T04:10:04;20.20;98.20
3492;DHT22;1760;52.480;13.422;2022-07-30T04:12:32;20.20;98.50
3492;DHT22;1760;52.480;13.422;2022-07-30T04:15:00;20.20;99.00
3492;DHT22;1760;52.480;13.422;2022-07-30T04:17:35;20.20;99.10
3492;DHT22;1760;52.480;13.422;2022-07-30T04:20:07;20.20;99.40
3492;DHT22;1760;52.480;13.422;2022-07-30T04:22:37;20.10;99.60
3492;DHT22;1760;52.480;13.422;2022-07-30T04:25:05;20.10;99.90
3492;DHT22;1760;52.480;13.422;2022-07-30T04:27:33;20.20;99.80
3492;DHT22;1760;52.480;13.422;2022-07-30T04:30:02;20.20;99.80
3492;DHT22;1760;52.480;13.422;2022-07-30T04:32:30;20.20;99.90
3492;DHT22;1760;52.480;13.422;2022-07-30T04:34:58;20.20;99.90
3492;DHT22;1760;52.480;13.422;2022-07-30T04:37:26;20.20;99.90
3492;DHT22;1760;52.480;13.422;2022-07-30T04:39:53;20.20;99.90
3492;DHT22;1760;52.480;13.422;2022-07-30T04:42:22;20.20;99.90
3492;DHT22;1760;52.480;13.422;2022-07-30T04:44:49;20.30;99.90
3492;DHT22;1760;52.480;13.422;2022-07-30T04:47:18;20.30;99.90
3492;DHT22;1760;52.480;13.422;2022-07-30T04:49:45;20.20;99.90
3492;DHT22;1760;52.480;13.422;2022-07-30T04:52:13;20.30;99.90
3492;DHT22;1760;52.480;13.422;2022-07-30T04:54:44;20.30;99.90
3492;DHT22;1760;52.480;13.422;2022-07-30T04:57:15;20.40;99.90
3492;DHT22;1760;52.480;13.422;2022-07-30T04:59:43;20.40;99.90
3492;DHT22;1760;52.480;13.422;2022-07-30T05:02:10;20.40;99.90
3492;DHT22;1760;52.480;13.422;2022-07-30T05:04:41;20.40;99.90
3492;DHT22;1760;52.480;13.422;2022-07-30T05:07:10;20.50;99.90
3492;DHT22;1760;52.480;13.422;2022-07-30T05:09:41;20.50;99.90
3492;DHT22;1760;52.480;13.422;2022-07-30T05:12:08;20.50;99.90
3492;DHT22;1760;52.480;13.422;2022-07-30T05:14:35;20.50;99.90
3492;DHT22;1760;52.480;13.422;2022-07-30T05:17:02;20.60;99.90
3492;DHT22;1760;52.480;13.422;2022-07-30T05:19:29;20.60;99.90
3492;DHT22;1760;52.480;13.422;2022-07-30T05:21:57;20.70;99.90
3492;DHT22;1760;52.480;13.422;2022-07-30T05:24:24;20.70;99.90
3492;DHT22;1760;52.480;13.422;2022-07-30T05:26:50;20.70;99.90
3492;DHT22;1760;52.480;13.422;2022-07-30T05:29:17;20.70;99.90
3492;DHT22;1760;52.480;13.422;2022-07-30T05:31:44;20.80;99.90
3492;DHT22;1760;52.480;13.422;2022-07-30T05:34:11;20.80;99.90
3492;DHT22;1760;52.480;13.422;2022-07-30T05:36:38;20.80;99.90
3492;DHT22;1760;52.480;13.422;2022-07-30T05:39:06;20.90;99.90
3492;DHT22;1760;52.480;13.422;2022-07-30T05:41:33;20.90;99.90
3492;DHT22;1760;52.480;13.422;2022-07-30T05:44:00;21.00;99.90
3492;DHT22;1760;52.480;13.422;2022-07-30T05:46:27;21.00;99.70
3492;DHT22;1760;52.480;13.422;2022-07-30T05:48:55;21.10;99.80
3492;DHT22;1760;52.480;13.422;2022-07-30T05:51:22;21.10;99.90
3492;DHT22;1760;52.480;13.422;2022-07-30T05:53:49;21.30;99.50
3492;DHT22;1760;52.480;13.422;2022-07-30T05:56:17;21.30;99.50
3492;DHT22;1760;52.480;13.422;2022-07-30T05:58:44;21.40;99.40
3492;DHT22;1760;52.480;13.422;2022-07-30T06:01:11;21.40;99.70
3492;DHT22;1760;52.480;13.422;2022-07-30T06:03:38;21.50;99.20
3492;DHT22;1760;52.480;13.422;2022-07-30T06:06:06;21.50;99.00
3492;DHT22;1760;52.480;13.422;2022-07-30T06:08:33;21.50;98.80
3492;DHT22;1760;52.480;13.422;2022-07-30T06:11:00;21.60;98.80
3492;DHT22;1760;52.480;13.422;2022-07-30T06:13:28;21.60;98.60
3492;DHT22;1760;52.480;13.422;2022-07-30T06:15:55;21.60;98.70
3492;DHT22;1760;52.480;13.422;2022-07-30T06:18:22;21.60;98.40
3492;DHT22;1760;52.480;13.422;2022-07-30T06:20:49;21.70;98.40
3492;DHT22;1760;52.480;13.422;2022-07-30T06:23:16;21.70;98.60
3492;DHT22;1760;52.480;13.422;2022-07-30T06:25:43;21.70;98.30
3492;DHT22;1760;52.480;13.422;2022-07-30T06:28:09;21.70;98.20
3492;DHT22;1760;52.480;13.422;2022-07-30T06:30:39;21.80;98.20
3492;DHT22;1760;52.480;13.422;2022-07-30T06:33:06;21.90;98.10
3492;DHT22;1760;52.480;13.422;2022-07-30T06:35:33;21.90;98.10
3492;DHT22;1760;52.480;13.422;2022-07-30T06:38:00;22.00;97.80
3492;DHT22;1760;52.480;13.422;2022-07-30T06:40:27;22.10;97.80
3492;DHT22;1760;52.480;13.422;2022-07-30T06:42:54;22.10;97.60
3492;DHT22;1760;52.480;13.422;2022-07-30T06:45:22;22.20;97.50
3492;DHT22;1760;52.480;13.422;2022-07-30T06:47:51;22.20;97.40
3492;DHT22;1760;52.480;13.422;2022-07-30T06:50:17;22.30;97.40
3492;DHT22;1760;52.480;13.422;2022-07-30T06:52:47;22.40;97.20
3492;DHT22;1760;52.480;13.422;2022-07-30T06:55:14;22.50;96.80
3492;DHT22;1760;52.480;13.422;2022-07-30T06:57:41;22.60;96.70
3492;DHT22;1760;52.480;13.422;2022-07-30T07:00:09;22.70;96.40
3492;DHT22;1760;52.480;13.422;2022-07-30T07:02:36;22.80;95.90
3492;DHT22;1760;52.480;13.422;2022-07-30T07:05:06;22.90;96.00
3492;DHT22;1760;52.480;13.422;2022-07-30T07:07:33;22.90;95.90
3492;DHT22;1760;52.480;13.422;2022-07-30T07:10:00;23.00;95.60
3492;DHT22;1760;52.480;13.422;2022-07-30T07:12:27;23.10;95.80
3492;DHT22;1760;52.480;13.422;2022-07-30T07:14:54;23.10;95.40
3492;DHT22;1760;52.480;13.422;2022-07-30T07:17:20;23.10;95.10
3492;DHT22;1760;52.480;13.422;2022-07-30T07:19:47;23.20;94.90
3492;DHT22;1760;52.480;13.422;2022-07-30T07:22:15;23.30;94.60
3492;DHT22;1760;52.480;13.422;2022-07-30T07:24:42;23.40;94.80
3492;DHT22;1760;52.480;13.422;2022-07-30T07:27:09;23.60;94.10
3492;DHT22;1760;52.480;13.422;2022-07-30T07:29:36;23.80;93.40
3492;DHT22;1760;52.480;13.422;2022-07-30T07:32:03;24.00;93.00
3492;DHT22;1760;52.480;13.422;2022-07-30T07:34:30;24.20;93.00
3492;DHT22;1760;52.480;13.422;2022-07-30T07:36:57;24.30;92.90
3492;DHT22;1760;52.480;13.422;2022-07-30T07:39:25;24.30;92.20
3492;DHT22;1760;52.480;13.422;2022-07-30T07:41:52;24.40;92.10
3492;DHT22;1760;52.480;13.422;2022-07-30T07:44:18;24.40;91.50
3492;DHT22;1760;52.480;13.422;2022-07-30T07:46:45;24.50;91.60
3492;DHT22;1760;52.480;13.422;2022-07-30T07:49:12;24.50;91.80
3492;DHT22;1760;52.480;13.422;2022-07-30T07:51:39;24.40;91.50
3492;DHT22;1760;52.480;13.422;2022-07-30T07:54:06;24.50;91.40
3492;DHT22;1760;52.480;13.422;2022-07-30T07:56:34;24.50;91.20
3492;DHT22;1760;52.480;13.422;2022-07-30T07:59:01;24.50;91.30
3492;DHT22;1760;52.480;13.422;2022-07-30T08:01:28;24.60;91.10
3492;DHT22;1760;52.480;13.422;2022-07-30T08:03:55;24.70;90.50
3492;DHT22;1760;52.480;13.422;2022-07-30T08:06:22;24.70;90.50
3492;DHT22;1760;52.480;13.422;2022-07-30T08:08:48;24.80;90.40
3492;DHT22;1760;52.480;13.422;2022-07-30T08:11:15;25.00;90.60
3492;DHT22;1760;52.480;13.422;2022-07-30T08:13:43;25.10;90.00
3492;DHT22;1760;52.480;13.422;2022-07-30T08:16:10;25.20;88.40
3492;DHT22;1760;52.480;13.422;2022-07-30T08:18:39;25.40;90.20
3492;DHT22;1760;52.480;13.422;2022-07-30T08:21:06;25.60;88.40
3492;DHT22;1760;52.480;13.422;2022-07-30T08:23:33;25.80;86.80
3492;DHT22;1760;52.480;13.422;2022-07-30T08:26:02;25.80;86.30
3492;DHT22;1760;52.480;13.422;2022-07-30T08:28:28;25.90;85.70
3492;DHT22;1760;52.480;13.422;2022-07-30T08:30:57;26.10;85.20
3492;DHT22;1760;52.480;13.422;2022-07-30T08:33:24;26.20;84.10
3492;DHT22;1760;52.480;13.422;2022-07-30T08:35:50;26.30;82.70
3492;DHT22;1760;52.480;13.422;2022-07-30T08:38:17;26.40;83.10
3492;DHT22;1760;52.480;13.422;2022-07-30T08:40:45;26.30;82.70
3492;DHT22;1760;52.480;13.422;2022-07-30T08:43:12;26.30;82.10
3492;DHT22;1760;52.480;13.422;2022-07-30T08:45:39;26.20;81.10
3492;DHT22;1760;52.480;13.422;2022-07-30T08:48:09;26.30;80.80
3492;DHT22;1760;52.480;13.422;2022-07-30T08:50:40;26.50;81.20
3492;DHT22;1760;52.480;13.422;2022-07-30T08:53:09;26.40;81.70
3492;DHT22;1760;52.480;13.422;2022-07-30T08:55:36;26.40;81.40
3492;DHT22;1760;52.480;13.422;2022-07-30T08:58:04;26.40;81.50
3492;DHT22;1760;52.480;13.422;2022-07-30T09:00:32;26.50;81.70
3492;DHT22;1760;52.480;13.422;2022-07-30T09:03:01;26.60;81.60
3492;DHT22;1760;52.480;13.422;2022-07-30T09:05:30;26.60;79.90
3492;DHT22;1760;52.480;13.422;2022-07-30T09:07:57;26.80;80.00
3492;DHT22;1760;52.480;13.422;2022-07-30T09:10:24;27.20;77.70
3492;DHT22;1760;52.480;13.422;2022-07-30T09:12:52;27.50;77.20
3492;DHT22;1760;52.480;13.422;2022-07-30T09:15:19;27.70;75.70
3492;DHT22;1760;52.480;13.422;2022-07-30T09:17:55;27.80;75.40
3492;DHT22;1760;52.480;13.422;2022-07-30T09:20:24;27.80;76.60
3492;DHT22;1760;52.480;13.422;2022-07-30T09:22:53;27.70;75.00
3492;DHT22;1760;52.480;13.422;2022-07-30T09:25:39;27.70;75.70
3492;DHT22;1760;52.480;13.422;2022-07-30T09:28:07;27.70;76.70
3492;DHT22;1760;52.480;13.422;2022-07-30T09:30:47;27.70;75.20
3492;DHT22;1760;52.480;13.422;2022-07-30T09:33:15;27.90;73.80
3492;DHT22;1760;52.480;13.422;2022-07-30T09:35:56;28.00;74.10
3492;DHT22;1760;52.480;13.422;2022-07-30T09:38:24;27.90;72.90
3492;DHT22;1760;52.480;13.422;2022-07-30T09:40:52;27.90;73.40
3492;DHT22;1760;52.480;13.422;2022-07-30T09:43:19;27.80;73.70
3492;DHT22;1760;52.480;13.422;2022-07-30T09:45:50;27.70;73.30
3492;DHT22;1760;52.480;13.422;2022-07-30T09:48:21;27.60;73.60
3492;DHT22;1760;52.480;13.422;2022-07-30T09:50:48;27.50;74.40
3492;DHT22;1760;52.480;13.422;2022-07-30T09:53:15;27.40;74.40
3492;DHT22;1760;52.480;13.422;2022-07-30T09:55:44;27.30;75.00
3492;DHT22;1760;52.480;13.422;2022-07-30T09:58:11;27.20;75.10
3492;DHT22;1760;52.480;13.422;2022-07-30T10:00:39;27.20;76.10
3492;DHT22;1760;52.480;13.422;2022-07-30T10:03:16;27.20;75.80
3492;DHT22;1760;52.480;13.422;2022-07-30T10:05:51;27.20;76.00
3492;DHT22;1760;52.480;13.422;2022-07-30T10:08:19;27.50;75.50
3492;DHT22;1760;52.480;13.422;2022-07-30T10:10:47;27.80;73.90
3492;DHT22;1760;52.480;13.422;2022-07-30T10:13:15;28.30;73.50
3492;DHT22;1760;52.480;13.422;2022-07-30T10:15:44;29.10;72.20
3492;DHT22;1760;52.480;13.422;2022-07-30T10:18:11;29.90;69.00
3492;DHT22;1760;52.480;13.422;2022-07-30T10:20:38;30.70;66.50
3492;DHT22;1760;52.480;13.422;2022-07-30T10:23:06;31.20;64.10
3492;DHT22;1760;52.480;13.422;2022-07-30T10:25:33;31.50;62.40
3492;DHT22;1760;52.480;13.422;2022-07-30T10:28:02;31.60;60.90
3492;DHT22;1760;52.480;13.422;2022-07-30T10:30:29;31.60;60.50
3492;DHT22;1760;52.480;13.422;2022-07-30T10:32:57;31.50;59.80
3492;DHT22;1760;52.480;13.422;2022-07-30T10:35:24;31.40;59.50
3492;DHT22;1760;52.480;13.422;2022-07-30T10:37:52;31.10;59.60
3492;DHT22;1760;52.480;13.422;2022-07-30T10:40:26;30.90;59.60
3492;DHT22;1760;52.480;13.422;2022-07-30T10:43:11;30.90;60.30
3492;DHT22;1760;52.480;13.422;2022-07-30T10:45:46;30.80;60.20
3492;DHT22;1760;52.480;13.422;2022-07-30T10:48:18;30.60;60.30
3492;DHT22;1760;52.480;13.422;2022-07-30T10:50:50;30.40;61.10
3492;DHT22;1760;52.480;13.422;2022-07-30T10:53:37;30.20;61.60
3492;DHT22;1760;52.480;13.422;2022-07-30T10:56:12;29.80;61.90
3492;DHT22;1760;52.480;13.422;2022-07-30T10:58:59;29.50;62.90
3492;DHT22;1760;52.480;13.422;2022-07-30T11:02:06;29.30;63.10
3492;DHT22;1760;52.480;13.422;2022-07-30T11:04:34;29.10;63.70
3492;DHT22;1760;52.480;13.422;2022-07-30T11:07:25;29.00;63.60
3492;DHT22;1760;52.480;13.422;2022-07-30T11:09:55;28.90;64.20
3492;DHT22;1760;52.480;13.422;2022-07-30T11:12:52;29.00;64.40
3492;DHT22;1760;52.480;13.422;2022-07-30T11:15:21;29.10;64.30
3492;DHT22;1760;52.480;13.422;2022-07-30T11:18:05;29.20;64.10
3492;DHT22;1760;52.480;13.422;2022-07-30T11:20:34;29.20;63.40
3492;DHT22;1760;52.480;13.422;2022-07-30T11:23:34;29.20;62.80
3492;DHT22;1760;52.480;13.422;2022-07-30T11:26:01;29.40;63.10
3492;DHT22;1760;52.480;13.422;2022-07-30T11:28:42;29.70;62.40
3492;DHT22;1760;52.480;13.422;2022-07-30T11:31:31;30.00;60.70
3492;DHT22;1760;52.480;13.422;2022-07-30T11:34:24;30.30;60.60
3492;DHT22;1760;52.480;13.422;2022-07-30T11:37:11;30.40;60.00
3492;DHT22;1760;52.480;13.422;2022-07-30T11:40:08;30.30;59.30
3492;DHT22;1760;52.480;13.422;2022-07-30T11:42:37;30.40;58.70
3492;DHT22;1760;52.480;13.422;2022-07-30T11:45:24;30.50;59.10
3492;DHT22;1760;52.480;13.422;2022-07-30T11:47:59;30.50;58.70
3492;DHT22;1760;52.480;13.422;2022-07-30T11:50:29;30.60;58.70
3492;DHT22;1760;52.480;13.422;2022-07-30T11:52:57;30.70;58.60
3492;DHT22;1760;52.480;13.422;2022-07-30T11:55:26;30.70;58.10
3492;DHT22;1760;52.480;13.422;2022-07-30T11:57:55;30.70;57.70
3492;DHT22;1760;52.480;13.422;2022-07-30T12:00:23;30.60;57.10
3492;DHT22;1760;52.480;13.422;2022-07-30T12:02:50;30.60;58.10
3492;DHT22;1760;52.480;13.422;2022-07-30T12:05:24;30.50;57.10
3492;DHT22;1760;52.480;13.422;2022-07-30T12:07:55;30.30;57.40
3492;DHT22;1760;52.480;13.422;2022-07-30T12:10:22;30.30;57.60
3492;DHT22;1760;52.480;13.422;2022-07-30T12:12:49;30.30;57.30
3492;DHT22;1760;52.480;13.422;2022-07-30T12:15:30;30.30;57.50
3492;DHT22;1760;52.480;13.422;2022-07-30T12:17:58;30.30;57.30
3492;DHT22;1760;52.480;13.422;2022-07-30T12:20:27;30.20;57.20
3492;DHT22;1760;52.480;13.422;2022-07-30T12:22:55;30.20;56.70
3492;DHT22;1760;52.480;13.422;2022-07-30T12:25:22;30.20;56.70
3492;DHT22;1760;52.480;13.422;2022-07-30T12:27:50;30.20;57.30
3492;DHT22;1760;52.480;13.422;2022-07-30T12:30:17;30.20;57.10
3492;DHT22;1760;52.480;13.422;2022-07-30T12:32:44;30.20;56.90
3492;DHT22;1760;52.480;13.422;2022-07-30T12:35:11;30.30;56.30
3492;DHT22;1760;52.480;13.422;2022-07-30T12:38:01;30.30;56.70
3492;DHT22;1760;52.480;13.422;2022-07-30T12:40:32;30.30;56.20
3492;DHT22;1760;52.480;13.422;2022-07-30T12:42:59;30.30;56.00
3492;DHT22;1760;52.480;13.422;2022-07-30T12:45:28;30.40;56.20
3492;DHT22;1760;52.480;13.422;2022-07-30T12:47:55;30.40;56.30
3492;DHT22;1760;52.480;13.422;2022-07-30T12:50:22;30.30;56.70
3492;DHT22;1760;52.480;13.422;2022-07-30T12:52:52;30.30;57.30
3492;DHT22;1760;52.480;13.422;2022-07-30T12:55:28;30.30;55.50
3492;DHT22;1760;52.480;13.422;2022-07-30T12:57:57;30.30;55.30
3492;DHT22;1760;52.480;13.422;2022-07-30T13:00:27;30.30;56.80
3492;DHT22;1760;52.480;13.422;2022-07-30T13:02:54;30.30;56.60
3492;DHT22;1760;52.480;13.422;2022-07-30T13:05:41;30.30;56.70
3492;DHT22;1760;52.480;13.422;2022-07-30T13:08:09;30.20;56.60
3492;DHT22;1760;52.480;13.422;2022-07-30T13:10:36;30.10;56.60
3492;DHT22;1760;52.480;13.422;2022-07-30T13:13:03;30.10;56.80
3492;DHT22;1760;52.480;13.422;2022-07-30T13:15:30;30.00;56.40
3492;DHT22;1760;52.480;13.422;2022-07-30T13:17:57;30.10;55.20
3492;DHT22;1760;52.480;13.422;2022-07-30T13:20:24;30.10;55.90
3492;DHT22;1760;52.480;13.422;2022-07-30T13:22:50;30.10;56.30
3492;DHT22;1760;52.480;13.422;2022-07-30T13:25:19;30.10;55.40
3492;DHT22;1760;52.480;13.422;2022-07-30T13:27:46;30.20;56.40
3492;DHT22;1760;52.480;13.422;2022-07-30T13:30:13;30.10;55.50
3492;DHT22;1760;52.480;13.422;2022-07-30T13:32:40;30.00;55.70
3492;DHT22;1760;52.480;13.422;2022-07-30T13:35:08;30.00;56.00
3492;DHT22;1760;52.480;13.422;2022-07-30T13:37:34;29.90;55.90
3492;DHT22;1760;52.480;13.422;2022-07-30T13:40:01;29.90;55.90
3492;DHT22;1760;52.480;13.422;2022-07-30T13:42:30;29.90;56.10
3492;DHT22;1760;52.480;13.422;2022-07-30T13:44:57;29.90;56.20
3492;DHT22;1760;52.480;13.422;2022-07-30T13:47:23;29.80;55.90
3492;DHT22;1760;52.480;13.422;2022-07-30T13:49:50;29.80;55.80
3492;DHT22;1760;52.480;13.422;2022-07-30T13:52:17;29.80;55.90
3492;DHT22;1760;52.480;13.422;2022-07-30T13:54:44;29.70;55.40
3492;DHT22;1760;52.480;13.422;2022-07-30T13:57:11;29.50;54.90
3492;DHT22;1760;52.480;13.422;2022-07-30T13:59:39;29.50;55.10
3492;DHT22;1760;52.480;13.422;2022-07-30T14:02:09;29.50;55.80
3492;DHT22;1760;52.480;13.422;2022-07-30T14:04:36;29.40;56.60
3492;DHT22;1760;52.480;13.422;2022-07-30T14:07:03;29.40;55.40
3492;DHT22;1760;52.480;13.422;2022-07-30T14:09:29;29.50;55.90
3492;DHT22;1760;52.480;13.422;2022-07-30T14:11:56;29.70;55.80
3492;DHT22;1760;52.480;13.422;2022-07-30T14:14:23;29.60;55.70
3492;DHT22;1760;52.480;13.422;2022-07-30T14:16:51;29.50;56.10
3492;DHT22;1760;52.480;13.422;2022-07-30T14:19:18;29.50;55.80
3492;DHT22;1760;52.480;13.422;2022-07-30T14:21:45;29.50;55.40
3492;DHT22;1760;52.480;13.422;2022-07-30T14:24:15;29.50;56.30
3492;DHT22;1760;52.480;13.422;2022-07-30T14:26:42;29.40;55.90
3492;DHT22;1760;52.480;13.422;2022-07-30T14:29:09;29.20;55.70
3492;DHT22;1760;52.480;13.422;2022-07-30T14:31:36;29.00;56.00
3492;DHT22;1760;52.480;13.422;2022-07-30T14:34:04;29.00;56.60
3492;DHT22;1760;52.480;13.422;2022-07-30T14:36:31;29.10;55.40
3492;DHT22;1760;52.480;13.422;2022-07-30T14:38:59;29.00;55.70
3492;DHT22;1760;52.480;13.422;2022-07-30T14:41:28;29.00;56.10
3492;DHT22;1760;52.480;13.422;2022-07-30T14:43:55;29.10;55.60
3492;DHT22;1760;52.480;13.422;2022-07-30T14:46:25;29.10;55.90
3492;DHT22;1760;52.480;13.422;2022-07-30T14:48:52;29.00;55.80
3492;DHT22;1760;52.480;13.422;2022-07-30T14:51:20;28.90;56.70
3492;DHT22;1760;52.480;13.422;2022-07-30T14:53:48;28.90;55.90
3492;DHT22;1760;52.480;13.422;2022-07-30T14:56:16;28.80;56.00
3492;DHT22;1760;52.480;13.422;2022-07-30T14:58:43;28.70;56.40
3492;DHT22;1760;52.480;13.422;2022-07-30T15:01:10;28.60;56.80
3492;DHT22;1760;52.480;13.422;2022-07-30T15:03:37;28.50;57.20
3492;DHT22;1760;52.480;13.422;2022-07-30T15:06:06;28.50;57.30
3492;DHT22;1760;52.480;13.422;2022-07-30T15:08:38;28.50;57.10
3492;DHT22;1760;52.480;13.422;2022-07-30T15:11:05;28.60;55.50
3492;DHT22;1760;52.480;13.422;2022-07-30T15:13:32;28.60;55.80
3492;DHT22;1760;52.480;13.422;2022-07-30T15:15:58;28.70;55.40
3492;DHT22;1760;52.480;13.422;2022-07-30T15:18:25;28.70;55.80
3492;DHT22;1760;52.480;13.422;2022-07-30T15:20:52;28.60;55.50
3492;DHT22;1760;52.480;13.422;2022-07-30T15:23:19;28.50;55.50
3492;DHT22;1760;52.480;13.422;2022-07-30T15:25:47;28.50;55.20
3492;DHT22;1760;52.480;13.422;2022-07-30T15:28:14;28.50;55.30
3492;DHT22;1760;52.480;13.422;2022-07-30T15:30:42;28.60;54.70
3492;DHT22;1760;52.480;13.422;2022-07-30T15:33:09;28.60;54.70
3492;DHT22;1760;52.480;13.422;2022-07-30T15:35:36;28.50;54.60
3492;DHT22;1760;52.480;13.422;2022-07-30T15:38:03;28.40;54.70
3492;DHT22;1760;52.480;13.422;2022-07-30T15:40:29;28.40;55.30
3492;DHT22;1760;52.480;13.422;2022-07-30T15:42:58;28.30;55.10
3492;DHT22;1760;52.480;13.422;2022-07-30T15:45:24;28.20;55.30
3492;DHT22;1760;52.480;13.422;2022-07-30T15:47:51;28.10;54.90
3492;DHT22;1760;52.480;13.422;2022-07-30T15:50:18;27.90;55.60
3492;DHT22;1760;52.480;13.422;2022-07-30T15:52:45;27.70;55.90
3492;DHT22;1760;52.480;13.422;2022-07-30T15:55:12;27.50;56.80
3492;DHT22;1760;52.480;13.422;2022-07-30T15:57:38;27.30;57.80
3492;DHT22;1760;52.480;13.422;2022-07-30T16:00:08;27.20;58.10